Time;durP1;ratioP1;P1;durP2;ratioP2;P2;SDS_P1;SDS_P2;PMS_P1;PMS_P2;Temp;Humidity;BMP_temperature;BMP_pressure;BME280_temperature;BME280_humidity;BME280_pressure;Samples;Min_cycle;Max_cycle;Signal;HPM_P1;HPM_P2
2022/11/11 00:01:12;;;;;;;25.77;14.90;;;;;;;4.71;86.02;97519.63;5092607;28;20051;-61
2022/11/11 00:03:40;;;;;;;28.17;13.88;;;;;;;4.63;85.73;97509.25;5095880;28;20079;-61
2022/11/11 00:06:10;;;;;;;32.20;15.20;;;;;;;4.62;85.09;97516.19;5096340;28;20406;-61
2022/11/11 00:08:37;;;;;;;25.35;13.35;;;;;;;4.63;84.89;97507.53;5096830;28;20071;-60
2022/11/11 00:11:06;;;;;;;26.92;14.73;;;;;;;4.63;85.04;97514.44;5096459;28;20101;-61
2022/11/11 00:13:35;;;;;;;27.48;15.23;;;;;;;4.60;84.96;97509.28;5096713;28;20594;-61
2022/11/11 00:16:06;;;;;;;24.52;13.98;;;;;;;4.59;84.83;97508.41;5096016;28;20086;-61
2022/11/11 00:26:49;;;;;;;26.88;14.73;;;;;;;4.58;85.73;97504.09;5096218;28;20475;-61
2022/11/11 00:29:19;;;;;;;28.25;14.45;;;;;;;4.59;85.75;97512.69;5096031;28;20048;-61
2022/11/11 00:34:28;;;;;;;26.27;14.02;;;;;;;4.63;85.86;97502.34;5078803;28;20078;-61
2022/11/11 00:36:54;;;;;;;25.08;15.13;;;;;;;4.64;85.81;97504.06;5096106;28;20048;-61
2022/11/11 00:39:21;;;;;;;29.67;14.57;;;;;;;4.66;86.54;97510.13;5095895;28;20079;-61
2022/11/11 00:41:48;;;;;;;25.30;15.38;;;;;;;4.72;86.35;97500.63;5095797;28;20122;-61
2022/11/11 00:44:15;;;;;;;26.25;15.60;;;;;;;4.76;86.20;97492.84;5095687;28;20052;-61
2022/11/11 00:52:12;;;;;;;30.10;14.57;;;;;;;4.73;85.28;97492.00;5095984;28;20406;-60
2022/11/11 00:54:39;;;;;;;26.55;14.48;;;;;;;4.66;85.88;97493.69;5095643;28;20044;-61
2022/11/11 00:57:07;;;;;;;29.38;14.55;;;;;;;4.62;86.11;97492.84;5095449;28;20044;-61
2022/11/11 00:59:34;;;;;;;28.13;15.00;;;;;;;4.66;86.65;97491.97;5095423;28;20076;-61
2022/11/11 01:02:03;;;;;;;25.65;14.50;;;;;;;4.57;86.12;97484.19;5095415;28;20051;-60
2022/11/11 01:04:30;;;;;;;24.38;15.10;;;;;;;4.63;87.03;97485.91;5095379;28;20051;-61
2022/11/11 01:06:57;;;;;;;27.77;16.23;;;;;;;4.65;87.27;97481.59;5095179;28;20044;-61
2022/11/11 01:09:24;;;;;;;22.98;14.18;;;;;;;4.71;87.68;97479.03;5095174;28;20087;-61
2022/11/11 01:11:51;;;;;;;27.92;15.43;;;;;;;4.71;87.96;97472.97;5095518;28;20051;-61
2022/11/11 01:14:19;;;;;;;34.10;16.45;;;;;;;4.73;87.48;97473.84;5094830;28;20083;-61
2022/11/11 01:16:46;;;;;;;30.58;15.77;;;;;;;4.82;88.03;97471.25;5094941;28;20087;-60
2022/11/11 01:19:15;;;;;;;23.00;14.73;;;;;;;4.83;87.79;97472.97;5095224;28;20051;-61
2022/11/11 01:21:42;;;;;;;24.95;14.45;;;;;;;4.83;87.68;97467.78;5095036;28;20482;-61
2022/11/11 01:24:09;;;;;;;27.20;15.45;;;;;;;4.79;87.48;97466.91;5094748;28;20074;-61
2022/11/11 01:26:36;;;;;;;24.98;15.43;;;;;;;4.80;87.46;97467.78;5094900;28;20055;-61
2022/11/11 01:29:03;;;;;;;32.85;15.35;;;;;;;4.76;87.61;97458.28;5094773;28;20047;-61
2022/11/11 01:31:30;;;;;;;27.83;14.80;;;;;;;4.71;88.25;97466.06;5094834;28;20083;-61
2022/11/11 01:33:58;;;;;;;31.77;14.85;;;;;;;4.71;88.44;97470.38;5094733;28;20040;-60
2022/11/11 01:36:28;;;;;;;30.48;15.90;;;;;;;4.67;87.92;97459.16;5094567;28;20418;-61
2022/11/11 01:38:57;;;;;;;26.20;14.82;;;;;;;4.68;87.64;97469.53;5094619;28;20097;-61
2022/11/11 01:41:36;;;;;;;27.45;15.05;;;;;;;4.68;87.68;97466.06;5094656;28;20784;-61
2022/11/11 01:44:19;;;;;;;34.55;16.33;;;;;;;4.67;87.73;97465.19;5094512;28;20051;-61
2022/11/11 01:46:50;;;;;;;30.90;15.82;;;;;;;4.64;87.07;97467.78;5094643;28;20047;-60
2022/11/11 01:49:20;;;;;;;;;;;;;;;4.71;87.55;97466.06;5094783;28;20394;-61
2022/11/11 01:51:58;;;;;;;33.17;15.85;;;;;;;4.71;87.51;97468.66;5094463;28;20385;-61
2022/11/11 01:54:30;;;;;;;29.90;16.38;;;;;;;4.66;87.73;97467.78;5094470;28;20047;-61
2022/11/11 01:57:04;;;;;;;30.73;15.63;;;;;;;4.72;88.54;97469.53;5094315;28;20143;-61
2022/11/11 01:59:34;;;;;;;32.08;15.52;;;;;;;4.75;88.30;97467.78;5094235;28;20135;-60
2022/11/11 02:02:06;;;;;;;30.58;16.23;;;;;;;4.70;88.14;97473.84;5094615;28;20504;-60
2022/11/11 02:07:19;;;;;;;30.17;16.67;;;;;;;4.72;87.26;97470.38;5094671;28;20404;-61
2022/11/11 02:09:48;;;;;;;26.30;16.70;;;;;;;4.75;87.59;97472.09;5094114;28;20581;-61
2022/11/11 02:15:01;;;;;;;30.50;16.55;;;;;;;4.78;87.20;97472.97;5093997;28;20061;-61
2022/11/11 02:17:31;;;;;;;32.72;18.35;;;;;;;4.73;87.34;97468.66;5093979;28;20088;-60
2022/11/11 02:20:00;;;;;;;32.13;17.50;;;;;;;4.75;86.78;97470.38;5094243;28;20083;-60
2022/11/11 02:22:36;;;;;;;31.70;16.92;;;;;;;4.74;86.61;97472.97;5093893;28;20226;-60
2022/11/11 02:25:09;;;;;;;32.83;15.93;;;;;;;4.72;86.52;97459.16;5093208;28;20055;-61
2022/11/11 02:27:39;;;;;;;32.38;17.00;;;;;;;4.75;86.28;97470.38;5093772;28;20551;-61
2022/11/11 02:30:15;;;;;;;29.77;16.77;;;;;;;4.74;85.53;97471.25;5093665;28;20075;-61
2022/11/11 02:32:44;;;;;;;29.13;16.75;;;;;;;4.70;85.54;97460.88;5093784;28;20047;-61
2022/11/11 02:35:16;;;;;;;29.98;16.55;;;;;;;4.71;86.18;97467.78;5093601;28;20134;-60
2022/11/11 02:37:46;;;;;;;31.27;15.90;;;;;;;4.72;86.62;97459.16;5093668;28;20130;-61
2022/11/11 02:40:18;;;;;;;27.70;16.42;;;;;;;4.73;86.76;97469.50;5093560;28;20040;-61
2022/11/11 02:42:44;;;;;;;24.63;14.57;;;;;;;4.73;86.90;97460.88;5093543;28;20471;-60
2022/11/11 02:45:11;;;;;;;32.63;17.35;;;;;;;4.76;86.76;97464.31;5093330;28;20127;-60
2022/11/11 02:47:39;;;;;;;31.98;15.75;;;;;;;4.74;86.50;97462.59;5093346;28;20109;-61
2022/11/11 02:50:07;;;;;;;33.13;18.92;;;;;;;4.74;86.26;97458.28;5093441;28;20054;-60
2022/11/11 02:52:34;;;;;;;32.97;18.13;;;;;;;4.73;86.30;97464.31;5093489;28;20048;-60
2022/11/11 02:55:02;;;;;;;30.95;16.20;;;;;;;4.66;86.44;97458.28;5093345;28;20048;-60
2022/11/11 02:57:30;;;;;;;27.17;14.88;;;;;;;4.65;86.33;97466.94;5093123;28;20044;-60
2022/11/11 03:00:00;;;;;;;28.42;15.27;;;;;;;4.61;86.42;97456.56;5093272;28;20052;-60
2022/11/11 03:02:27;;;;;;;25.63;14.80;;;;;;;4.54;86.20;97459.13;5093279;28;20054;-61
2022/11/11 03:04:54;;;;;;;26.85;15.45;;;;;;;4.59;86.42;97458.28;5093314;28;20505;-61
2022/11/11 03:07:22;;;;;;;24.50;14.57;;;;;;;4.53;86.97;97456.53;5093316;28;20126;-61
2022/11/11 03:09:49;;;;;;;27.98;15.75;;;;;;;4.48;86.83;97463.47;5093233;28;20048;-61
2022/11/11 03:12:17;;;;;;;31.48;17.30;;;;;;;4.48;87.71;97451.34;5093195;28;20101;-60
2022/11/11 03:14:46;;;;;;;28.45;16.17;;;;;;;4.54;87.84;97466.91;5093093;28;20499;-61
2022/11/11 03:21:03;;;;;;;33.55;18.45;;;;;;;4.62;87.97;97466.06;5093274;28;20059;-60
2022/11/11 03:22:44;;;;;;;25.83;15.02;;;;;;;4.63;88.08;97463.47;5093131;28;20409;-61
2022/11/11 03:27:55;;;;;;;29.77;15.63;;;;;;;4.63;87.61;97471.25;5093185;28;20118;-61
2022/11/11 03:30:24;;;;;;;30.50;16.27;;;;;;;4.63;87.38;97467.78;5092995;28;20048;-61
2022/11/11 03:32:51;;;;;;;28.15;15.20;;;;;;;4.61;87.36;97469.53;5092815;28;20048;-61
2022/11/11 03:35:18;;;;;;;22.85;13.68;;;;;;;4.66;86.80;97468.66;5092980;28;20101;-61
2022/11/11 03:40:30;;;;;;;31.70;17.40;;;;;;;4.68;85.74;97466.94;5096999;28;20054;-60
2022/11/11 03:42:57;;;;;;;24.20;16.60;;;;;;;4.71;86.17;97463.47;5096991;28;20074;-60
2022/11/11 03:45:26;;;;;;;25.73;14.07;;;;;;;4.72;85.72;97466.94;5096817;28;20044;-60
2022/11/11 03:47:54;;;;;;;27.45;13.70;;;;;;;4.66;85.59;97472.97;5096919;28;20105;-60
2022/11/11 03:50:21;;;;;;;24.35;14.60;;;;;;;4.60;85.69;97472.97;5096711;28;20071;-60
2022/11/11 03:52:48;;;;;;;28.90;14.25;;;;;;;4.54;85.77;97466.03;5096738;28;20127;-60
2022/11/11 03:55:16;;;;;;;30.70;14.57;;;;;;;4.46;86.35;97466.06;5096975;28;20040;-60
2022/11/11 03:57:47;;;;;;;24.70;13.68;;;;;;;4.46;87.63;97476.41;5096579;28;20044;-60
2022/11/11 04:00:16;;;;;;;25.17;13.90;;;;;;;4.42;87.91;97478.13;5096611;28;20048;-60
2022/11/11 04:11:06;;;;;;;26.90;15.10;;;;;;;4.42;88.68;97475.53;5096778;28;20410;-61
2022/11/11 04:16:19;;;;;;;24.58;14.27;;;;;;;4.47;89.18;97472.09;5096350;28;20055;-61
2022/11/11 04:21:44;;;;;;;33.88;16.02;;;;;;;4.54;88.52;97468.63;5096287;28;20059;-61
2022/11/11 04:26:59;;;;;;;26.17;14.88;;;;;;;4.66;87.90;97475.56;5096269;28;20070;-60
2022/11/11 04:29:28;;;;;;;30.48;16.50;;;;;;;4.70;87.54;97481.63;5096117;28;20044;-60
2022/11/11 04:34:43;;;;;;;27.58;14.98;;;;;;;4.72;87.28;97479.91;5096120;28;20153;-61
2022/11/11 04:37:11;;;;;;;25.63;14.25;;;;;;;4.76;87.77;97481.63;5095828;28;20528;-61
2022/11/11 04:42:24;;;;;;;25.25;13.50;;;;;;;4.82;87.41;97496.31;5096154;28;20055;-61
2022/11/11 04:47:36;;;;;;;26.60;14.60;;;;;;;4.81;87.44;97492.84;5095140;28;20055;-61
2022/11/11 04:50:05;;;;;;;25.40;14.40;;;;;;;4.85;87.67;97498.91;5095653;28;20505;-61
2022/11/11 04:52:32;;;;;;;24.75;14.15;;;;;;;4.80;88.39;97497.19;5095664;28;20051;-61
2022/11/11 04:57:46;;;;;;;23.55;13.43;;;;;;;4.85;88.14;97499.75;5095634;28;20050;-61
2022/11/11 05:00:15;;;;;;;26.52;14.50;;;;;;;4.97;89.18;97503.22;5095527;28;20179;-61
2022/11/11 05:08:54;;;;;;;32.97;15.02;;;;;;;4.95;87.94;97503.22;5095654;28;20137;-60
2022/11/11 05:11:05;;;;;;;23.98;14.80;;;;;;;4.97;87.38;97504.06;5095462;28;20055;-61
2022/11/11 05:22:12;;;;;;;22.13;13.45;;;;;;;4.91;87.70;97506.69;5033101;28;20064;-61
2022/11/11 05:27:26;;;;;;;22.35;12.60;;;;;;;4.95;88.26;97508.41;5070652;28;20524;-60
2022/11/11 05:29:53;;;;;;;28.08;14.43;;;;;;;5.03;88.02;97511.03;5094780;28;20086;-60
2022/11/11 05:32:22;;;;;;;23.77;13.13;;;;;;;5.14;88.12;97514.47;5094841;28;20044;-60
2022/11/11 05:34:51;;;;;;;23.63;13.77;;;;;;;5.25;87.48;97523.97;5094762;28;20490;-61
2022/11/11 05:37:20;;;;;;;29.15;14.85;;;;;;;5.35;87.79;97527.41;5094559;28;20048;-61
2022/11/11 05:39:48;;;;;;;21.92;13.32;;;;;;;5.44;86.65;97524.78;5094614;28;20050;-61
2022/11/11 05:42:16;;;;;;;18.75;11.65;;;;;;;5.48;86.56;97529.09;5094575;28;20044;-60
2022/11/11 05:44:43;;;;;;;25.58;13.45;;;;;;;5.46;86.35;97517.00;5094579;28;20071;-61
2022/11/11 05:47:11;;;;;;;20.23;12.00;;;;;;;5.57;85.39;97530.84;5094429;28;20052;-61
2022/11/11 05:49:38;;;;;;;24.42;12.70;;;;;;;5.69;85.80;97533.41;5094577;28;20447;-60
2022/11/11 05:52:07;;;;;;;19.92;12.50;;;;;;;5.78;85.04;97532.50;5094771;28;20402;-60
2022/11/11 05:54:36;;;;;;;24.05;13.00;;;;;;;5.99;86.08;97533.31;5094314;28;20055;-61
2022/11/11 05:57:03;;;;;;;24.30;13.45;;;;;;;6.73;86.81;97535.56;5094361;28;20109;-61
2022/11/11 05:59:31;;;;;;;23.20;14.25;;;;;;;7.58;81.47;97531.38;5093611;28;20051;-61
2022/11/11 06:01:58;;;;;;;18.73;12.13;;;;;;;8.45;78.22;97535.59;5094166;28;20048;-61
2022/11/11 06:04:26;;;;;;;17.27;10.95;;;;;;;9.66;74.42;97536.34;5094590;28;20093;-61
2022/11/11 06:06:53;;;;;;;18.80;10.25;;;;;;;10.67;70.34;97550.03;5094228;28;20044;-61
2022/11/11 06:09:20;;;;;;;13.00;8.90;;;;;;;11.52;66.45;97550.66;5094169;28;20044;-61
2022/11/11 06:11:49;;;;;;;16.73;9.43;;;;;;;12.35;63.90;97547.59;5094116;28;20109;-61
2022/11/11 06:14:16;;;;;;;14.77;9.15;;;;;;;13.18;62.03;97552.94;5094028;28;20051;-61
2022/11/11 06:16:43;;;;;;;13.07;8.90;;;;;;;14.14;58.81;97561.13;5093843;28;20052;-61
2022/11/11 06:19:11;;;;;;;13.38;9.15;;;;;;;15.17;56.67;97565.19;5094115;28;20091;-61
2022/11/11 06:24:19;;;;;;;10.90;7.63;;;;;;;17.22;50.93;97566.84;5093413;28;20051;-60
2022/11/11 06:26:47;;;;;;;11.68;7.90;;;;;;;17.78;48.53;97566.72;5093885;28;20462;-60
2022/11/11 06:29:15;;;;;;;13.23;8.55;;;;;;;18.06;48.44;97557.34;5093782;28;20450;-61
2022/11/11 06:31:44;;;;;;;9.90;8.15;;;;;;;18.07;48.33;97556.44;5093924;28;20513;-61
2022/11/11 06:34:11;;;;;;;13.63;8.50;;;;;;;17.70;49.16;97563.63;5093691;28;20048;-61
2022/11/11 06:36:39;;;;;;;12.75;8.05;;;;;;;17.21;49.69;97570.41;5093715;28;20467;-61
2022/11/11 06:39:06;;;;;;;10.90;8.57;;;;;;;16.65;50.18;97564.16;5093649;28;20485;-60
2022/11/11 06:41:33;;;;;;;13.80;8.20;;;;;;;16.29;50.48;97575.50;5093558;28;20048;-60
2022/11/11 06:44:00;;;;;;;12.85;8.98;;;;;;;16.16;50.64;97567.25;5093594;28;20052;-60
2022/11/11 06:46:29;;;;;;;12.93;8.48;;;;;;;16.66;50.58;97572.94;5093696;28;20098;-61
2022/11/11 06:48:56;;;;;;;10.18;8.15;;;;;;;17.52;49.12;97574.22;5093433;28;20054;-60
2022/11/11 06:51:23;;;;;;;14.45;8.02;;;;;;;18.25;47.91;97570.53;5093322;28;20048;-61
2022/11/11 06:53:50;;;;;;;13.38;8.00;;;;;;;19.00;46.45;97576.25;5093302;28;20139;-61
2022/11/11 06:56:18;;;;;;;12.55;8.38;;;;;;;19.71;45.63;97574.00;5093364;28;20058;-61
2022/11/11 06:58:45;;;;;;;11.70;7.80;;;;;;;20.52;44.20;97576.31;5093188;28;20048;-60
2022/11/11 07:01:15;;;;;;;14.02;8.05;;;;;;;21.17;42.19;97582.03;5093357;28;20048;-60
2022/11/11 07:03:43;;;;;;;9.13;7.88;;;;;;;21.33;41.42;97582.72;5093244;28;20047;-61
2022/11/11 07:06:11;;;;;;;14.60;8.60;;;;;;;21.43;41.21;97582.97;5093260;28;20051;-60
2022/11/11 07:08:38;;;;;;;15.77;9.73;;;;;;;21.55;40.67;97572.47;5093362;28;20071;-61
2022/11/11 07:11:05;;;;;;;15.93;10.73;;;;;;;21.51;40.18;97573.63;5092869;28;20048;-61
2022/11/11 07:13:32;;;;;;;21.17;10.15;;;;;;;21.23;41.01;97583.44;5093241;28;20405;-61
2022/11/11 07:15:59;;;;;;;17.77;9.63;;;;;;;21.28;41.51;97584.81;5093058;28;20410;-61
2022/11/11 07:18:26;;;;;;;13.57;9.77;;;;;;;21.17;41.79;97584.69;5092923;28;20048;-61
2022/11/11 07:20:55;;;;;;;14.43;8.95;;;;;;;21.69;40.81;97585.72;5093152;28;20127;-61
2022/11/11 07:23:22;;;;;;;13.07;8.90;;;;;;;21.71;41.18;97582.94;5092796;28;20040;-61
2022/11/11 07:25:49;;;;;;;12.90;9.15;;;;;;;22.15;40.38;97585.38;5093054;28;20048;-61
2022/11/11 07:28:16;;;;;;;12.88;8.52;;;;;;;22.12;40.05;97589.09;5093384;28;20040;-61
2022/11/11 07:30:43;;;;;;;12.63;8.65;;;;;;;21.68;39.74;97589.34;5093038;28;20443;-61
2022/11/11 07:33:11;;;;;;;17.40;9.30;;;;;;;20.75;42.94;97587.31;5092991;28;20059;-61
2022/11/11 07:35:38;;;;;;;17.50;9.80;;;;;;;20.54;43.39;97577.94;5093038;28;20048;-61
2022/11/11 07:38:07;;;;;;;14.77;8.88;;;;;;;20.51;45.31;97582.56;5092894;28;20127;-61
2022/11/11 07:40:34;;;;;;;11.07;8.07;;;;;;;20.60;43.52;97578.50;5093108;28;20154;-61
2022/11/11 07:43:01;;;;;;;9.38;6.80;;;;;;;20.25;44.71;97575.28;5092911;28;20048;-61
2022/11/11 07:45:28;;;;;;;10.35;6.90;;;;;;;19.18;46.82;97585.00;5092775;28;20044;-61
2022/11/11 07:47:55;;;;;;;9.23;6.72;;;;;;;18.23;48.75;97577.69;5092863;28;20055;-60
2022/11/11 07:50:22;;;;;;;11.52;7.20;;;;;;;17.30;51.77;97593.75;5092781;28;20043;-61
2022/11/11 07:52:50;;;;;;;10.85;7.05;;;;;;;16.63;54.27;97587.16;5092775;28;20041;-60
2022/11/11 07:55:19;;;;;;;13.10;8.25;;;;;;;16.15;55.67;97584.88;5092915;28;20515;-60
2022/11/11 07:57:46;;;;;;;12.15;8.38;;;;;;;15.81;56.72;97585.44;5092771;28;20379;-60
2022/11/11 08:00:14;;;;;;;16.08;8.35;;;;;;;15.42;57.79;97601.09;5092776;28;20583;-60
2022/11/11 08:02:41;;;;;;;13.43;8.25;;;;;;;14.98;58.75;97597.53;5092731;28;20044;-60
2022/11/11 08:05:09;;;;;;;11.43;8.43;;;;;;;14.64;59.72;97590.91;5092713;28;20490;-60
2022/11/11 08:07:36;;;;;;;16.55;8.90;;;;;;;14.47;60.75;97587.13;5092728;28;20422;-60
2022/11/11 08:10:04;;;;;;;17.50;9.90;;;;;;;14.28;61.47;97595.72;5092478;28;20143;-61
2022/11/11 08:15:17;;;;;;;13.23;8.68;;;;;;;14.19;62.87;97595.16;5092818;28;20411;-60
2022/11/11 08:17:45;;;;;;;13.80;9.18;;;;;;;14.27;62.41;97599.25;5092470;28;20136;-60
2022/11/11 08:20:13;;;;;;;10.85;7.28;;;;;;;14.12;61.45;97597.19;5092596;28;20051;-60
2022/11/11 08:22:41;;;;;;;12.55;8.20;;;;;;;14.03;62.61;97599.19;5092751;28;20054;-60
2022/11/11 08:25:12;;;;;;;11.20;7.57;;;;;;;14.00;62.40;97598.47;5096122;28;20110;-60
2022/11/11 08:27:41;;;;;;;13.57;7.82;;;;;;;13.97;62.80;97607.31;5096166;28;20395;-60
2022/11/11 08:30:10;;;;;;;13.93;8.63;;;;;;;14.02;61.84;97605.38;5096212;28;20145;-60
2022/11/11 08:32:37;;;;;;;11.13;7.35;;;;;;;13.95;62.80;97603.03;5096050;28;20048;-60
2022/11/11 08:35:04;;;;;;;15.52;8.68;;;;;;;13.96;62.73;97607.34;5095956;28;20130;-60
2022/11/11 08:37:31;;;;;;;11.45;7.90;;;;;;;13.90;62.57;97604.03;5095772;28;20048;-60
2022/11/11 08:39:59;;;;;;;13.00;7.40;;;;;;;13.88;62.89;97612.91;5095774;28;20052;-60
2022/11/11 08:42:27;;;;;;;10.48;7.65;;;;;;;13.92;63.05;97613.63;5095964;28;20044;-60
2022/11/11 08:44:55;;;;;;;12.88;7.60;;;;;;;13.90;62.92;97606.69;5095898;28;20479;-60
2022/11/11 08:47:23;;;;;;;11.88;7.95;;;;;;;13.86;62.72;97607.69;5095691;28;20478;-60
2022/11/11 08:49:51;;;;;;;11.98;7.68;;;;;;;13.70;62.59;97615.22;5095624;28;20040;-59
2022/11/11 08:52:18;;;;;;;13.38;6.90;;;;;;;13.72;62.94;97610.78;5095649;28;20083;-59
2022/11/11 08:54:45;;;;;;;9.18;7.10;;;;;;;13.71;62.68;97606.44;5095543;28;20094;-60
2022/11/11 08:57:12;;;;;;;12.05;6.57;;;;;;;13.77;61.93;97608.88;5095465;28;20059;-59
2022/11/11 08:59:39;;;;;;;8.73;5.70;;;;;;;13.77;61.50;97616.75;5095663;28;20078;-60
2022/11/11 09:02:11;;;;;;;10.98;6.28;;;;;;;13.77;61.54;97615.91;5095354;28;20040;-60
2022/11/11 09:04:38;;;;;;;11.18;5.55;;;;;;;13.76;61.32;97616.81;5095284;28;20050;-60
2022/11/11 09:07:06;;;;;;;9.98;6.25;;;;;;;13.77;61.07;97614.13;5095286;28;20131;-61
2022/11/11 09:09:33;;;;;;;8.18;5.30;;;;;;;13.83;60.95;97613.06;5095248;28;20090;-62
2022/11/11 09:12:00;;;;;;;7.93;5.35;;;;;;;13.77;61.10;97616.75;5095368;28;20044;-61
2022/11/11 09:14:27;;;;;;;9.25;5.53;;;;;;;13.75;61.04;97612.44;5095516;28;20048;-61
2022/11/11 09:16:54;;;;;;;7.97;5.32;;;;;;;13.71;60.80;97616.97;5095145;28;20052;-61
2022/11/11 09:19:23;;;;;;;7.07;4.65;;;;;;;13.61;60.89;97605.88;5095184;28;20106;-61
2022/11/11 09:21:51;;;;;;;8.68;5.38;;;;;;;13.48;60.95;97609.78;5095052;28;20481;-61
2022/11/11 09:24:19;;;;;;;8.35;5.28;;;;;;;13.51;61.28;97605.34;5094980;28;20074;-61
2022/11/11 09:26:48;;;;;;;8.98;5.13;;;;;;;13.48;60.51;97618.53;5095033;28;20078;-61
2022/11/11 09:29:15;;;;;;;8.32;5.07;;;;;;;13.45;60.79;97617.81;5094886;28;20048;-61
2022/11/11 09:31:42;;;;;;;7.30;4.85;;;;;;;13.38;60.98;97612.75;5094704;28;20131;-61
2022/11/11 09:34:09;;;;;;;6.35;4.72;;;;;;;13.36;60.79;97616.31;5094744;28;20071;-61
2022/11/11 09:36:38;;;;;;;8.85;5.55;;;;;;;13.35;60.58;97614.59;5094751;28;20047;-61
2022/11/11 09:39:05;;;;;;;7.55;5.00;;;;;;;13.33;60.41;97608.56;5094742;28;20056;-61
2022/11/11 09:41:47;;;;;;;10.63;5.82;;;;;;;13.24;60.93;97625.44;5094683;28;20044;-61
2022/11/11 09:44:31;;;;;;;6.18;4.78;;;;;;;13.15;60.71;97618.72;5094799;28;20081;-61
2022/11/11 09:47:04;;;;;;;7.68;4.40;;;;;;;13.16;60.36;97616.94;5094577;28;20541;-61
2022/11/11 09:49:58;;;;;;;7.85;4.10;;;;;;;13.20;59.93;97613.31;5094577;28;20387;-61
2022/11/11 09:52:31;;;;;;;6.72;4.30;;;;;;;13.12;59.62;97610.91;5091559;28;20039;-61
2022/11/11 09:55:03;;;;;;;6.55;3.70;;;;;;;13.11;59.58;97609.22;5094504;28;20052;-61
2022/11/11 09:57:36;;;;;;;2.60;2.22;;;;;;;13.09;59.78;97604.00;5094455;28;20043;-61
2022/11/11 10:00:08;;;;;;;4.72;2.72;;;;;;;13.11;59.78;97607.44;5094421;28;20055;-61
2022/11/11 10:02:41;;;;;;;1.98;1.77;;;;;;;13.04;60.19;97603.31;5094489;28;20048;-61
2022/11/11 10:05:13;;;;;;;1.75;1.65;;;;;;;13.01;60.33;97593.72;5094272;28;20040;-61
2022/11/11 10:07:47;;;;;;;3.42;1.38;;;;;;;12.98;61.14;97595.59;5094140;28;20117;-61
2022/11/11 10:10:32;;;;;;;1.27;0.98;;;;;;;12.93;62.18;97597.50;5094200;28;20087;-61
2022/11/11 10:12:59;;;;;;;2.08;0.85;;;;;;;12.79;63.15;97593.53;5094098;28;20101;-61
2022/11/11 10:15:35;;;;;;;0.70;0.70;;;;;;;12.66;63.44;97594.81;5094115;28;20048;-60
2022/11/11 10:18:26;;;;;;;2.38;0.70;;;;;;;12.63;63.17;97586.13;5094110;28;20106;-61
2022/11/11 10:20:55;;;;;;;0.77;0.73;;;;;;;12.58;64.46;97584.56;5093934;28;20485;-61
2022/11/11 10:23:31;;;;;;;1.15;0.90;;;;;;;12.60;64.24;97574.84;5093815;28;20059;-61
2022/11/11 10:26:05;;;;;;;0.60;0.60;;;;;;;12.52;63.07;97572.44;5093998;28;20044;-62
2022/11/11 10:28:36;;;;;;;1.20;1.10;;;;;;;12.54;63.09;97575.91;5093932;28;20048;-61
2022/11/11 10:31:09;;;;;;;0.65;0.65;;;;;;;12.56;63.31;97587.22;5094119;28;20048;-61
2022/11/11 10:33:46;;;;;;;0.80;0.80;;;;;;;12.55;63.00;97582.00;5094078;28;20101;-61
2022/11/11 10:36:17;;;;;;;0.93;0.70;;;;;;;12.58;63.08;97582.78;5093785;28;20040;-61
2022/11/11 10:38:53;;;;;;;0.90;0.90;;;;;;;12.57;62.79;97573.19;5093548;28;20048;-61
2022/11/11 10:41:25;;;;;;;0.70;0.70;;;;;;;12.51;62.77;97581.22;5093557;28;20055;-61
2022/11/11 10:43:53;;;;;;;0.80;0.80;;;;;;;12.53;63.50;97576.81;5093586;28;20056;-61
2022/11/11 10:46:25;;;;;;;1.02;0.75;;;;;;;12.43;64.15;97578.00;5093105;28;20489;-61
2022/11/11 10:48:56;;;;;;;1.75;0.90;;;;;;;12.43;64.37;97578.00;5093392;28;20059;-61
2022/11/11 10:51:27;;;;;;;1.30;1.15;;;;;;;12.28;65.56;97580.13;5093360;28;20052;-61
2022/11/11 10:54:04;;;;;;;2.20;1.33;;;;;;;12.28;65.85;97589.78;5093340;28;20044;-61
2022/11/11 10:56:38;;;;;;;1.35;1.25;;;;;;;12.26;66.48;97579.31;5093377;28;20044;-61
2022/11/11 10:59:13;;;;;;;1.17;1.08;;;;;;;12.26;66.98;97576.69;5093270;28;20105;-61
2022/11/11 11:01:49;;;;;;;1.02;1.00;;;;;;;12.15;67.90;97578.75;5093337;28;20041;-61
2022/11/11 11:04:26;;;;;;;1.40;1.30;;;;;;;12.13;68.49;97586.66;5093259;28;20136;-61
2022/11/11 11:06:55;;;;;;;1.25;1.10;;;;;;;12.09;68.45;97579.78;5093325;28;20055;-61
2022/11/11 11:09:30;;;;;;;1.73;1.48;;;;;;;12.06;69.63;97579.81;5093156;28;20531;-61
2022/11/11 11:12:03;;;;;;;2.08;1.80;;;;;;;11.96;69.37;97584.47;5093187;28;20075;-61
2022/11/11 11:14:32;;;;;;;2.88;1.73;;;;;;;11.97;70.55;97581.81;5093183;28;20047;-61
2022/11/11 11:17:06;;;;;;;3.70;1.93;;;;;;;11.99;70.29;97571.28;5093206;28;20055;-61
2022/11/11 11:19:34;;;;;;;2.72;1.88;;;;;;;12.03;70.68;97575.53;5093042;28;20569;-61
2022/11/11 11:22:03;;;;;;;2.45;2.20;;;;;;;12.00;71.05;97573.88;5093044;28;20131;-61
2022/11/11 11:24:34;;;;;;;3.22;2.10;;;;;;;12.00;71.51;97570.38;5093058;28;20055;-61
2022/11/11 11:27:03;;;;;;;2.42;2.00;;;;;;;11.96;70.41;97574.00;5093020;28;20044;-61
2022/11/11 11:29:33;;;;;;;2.78;2.10;;;;;;;11.97;71.08;97573.94;5093086;28;20093;-61
2022/11/11 11:32:28;;;;;;;3.05;1.98;;;;;;;11.93;70.12;97569.69;5093023;28;20482;-60
2022/11/11 11:34:56;;;;;;;2.08;1.80;;;;;;;11.81;70.14;97575.25;5075514;28;20136;-61
2022/11/11 11:37:25;;;;;;;2.78;1.90;;;;;;;11.79;69.85;97570.06;5093005;28;20073;-60
2022/11/11 11:40:01;;;;;;;3.50;2.13;;;;;;;11.78;69.46;97578.81;5092831;28;20490;-61
2022/11/11 11:42:33;;;;;;;3.65;1.90;;;;;;;11.78;69.41;97576.22;5092933;28;20094;-61
2022/11/11 11:45:17;;;;;;;3.50;1.88;;;;;;;11.78;69.07;97585.81;5092852;28;20059;-60
2022/11/11 11:47:57;;;;;;;2.78;2.30;;;;;;;11.79;69.20;97588.41;5093035;28;20409;-61
2022/11/11 11:50:39;;;;;;;4.80;2.40;;;;;;;11.84;68.93;97573.44;5092897;28;20080;-61
2022/11/11 11:53:22;;;;;;;3.88;2.15;;;;;;;11.86;68.38;97583.88;5092697;28;20088;-61
2022/11/11 11:55:57;;;;;;;2.03;1.80;;;;;;;11.92;68.54;97573.19;5092751;28;20174;-61
2022/11/11 11:58:42;;;;;;;1.70;1.38;;;;;;;11.97;67.97;97571.31;5094152;28;20432;-61
2022/11/11 12:01:15;;;;;;;2.40;1.70;;;;;;;12.01;67.49;97570.34;5096808;28;20054;-60
2022/11/11 12:04:13;;;;;;;1.98;1.40;;;;;;;12.07;68.29;97582.44;5096603;28;20062;-60
2022/11/11 12:06:50;;;;;;;1.35;1.25;;;;;;;12.01;67.49;97588.69;5096749;28;20052;-61
2022/11/11 12:09:29;;;;;;;2.67;1.45;;;;;;;12.06;67.56;97585.06;5096539;28;20052;-61
2022/11/11 12:12:11;;;;;;;1.70;1.30;;;;;;;12.07;68.26;97587.69;5096729;28;20085;-61
2022/11/11 12:14:51;;;;;;;1.80;1.20;;;;;;;12.12;67.34;97590.19;5096354;28;20158;-61
2022/11/11 12:17:30;;;;;;;1.77;1.23;;;;;;;12.17;67.87;97590.06;5096400;28;20097;-61
2022/11/11 12:20:11;;;;;;;1.80;1.50;;;;;;;12.23;68.02;97582.03;5096375;28;20044;-61
2022/11/11 12:22:54;;;;;;;1.20;1.10;;;;;;;12.35;68.52;97580.81;5096165;28;20087;-60
2022/11/11 12:25:43;;;;;;;1.15;1.05;;;;;;;12.41;67.52;97591.16;5096282;28;20488;-61
2022/11/11 12:28:23;;;;;;;2.05;1.45;;;;;;;12.36;67.21;97591.28;5096188;28;20055;-61
2022/11/11 12:31:00;;;;;;;1.67;1.58;;;;;;;12.30;68.00;97580.06;5096206;28;20122;-61
2022/11/11 12:33:59;;;;;;;1.38;1.27;;;;;;;12.33;68.20;97598.38;5096057;28;20044;-61
2022/11/11 12:36:35;;;;;;;1.45;1.20;;;;;;;12.34;68.30;97592.22;5080532;28;20118;-60
2022/11/11 12:39:07;;;;;;;1.55;1.20;;;;;;;12.43;66.61;97596.34;5095843;28;20515;-61
2022/11/11 12:41:55;;;;;;;1.00;0.90;;;;;;;12.47;66.86;97597.97;5095817;28;20472;-61
2022/11/11 12:44:33;;;;;;;2.25;1.30;;;;;;;12.45;66.66;97607.66;5095888;28;20044;-61
2022/11/11 12:47:22;;;;;;;1.10;1.00;;;;;;;12.43;65.89;97602.44;5096120;28;20059;-61
2022/11/11 12:49:56;;;;;;;1.23;1.13;;;;;;;12.26;65.81;97608.19;5095787;28;20055;-61
2022/11/11 12:52:36;;;;;;;1.65;1.40;;;;;;;12.19;65.54;97604.84;5095664;28;20105;-61
2022/11/11 12:55:18;;;;;;;1.88;1.27;;;;;;;12.15;65.41;97613.72;5095607;28;20486;-61
2022/11/11 12:58:05;;;;;;;2.15;1.80;;;;;;;12.13;65.75;97623.38;5095642;28;20048;-61
2022/11/11 13:00:40;;;;;;;1.55;1.45;;;;;;;12.03;65.16;97619.25;5095784;28;20117;-61
2022/11/11 13:03:33;;;;;;;1.50;1.40;;;;;;;12.01;64.90;97628.03;5095474;28;20082;-61
2022/11/11 13:06:11;;;;;;;1.55;1.45;;;;;;;11.94;64.71;97622.97;5095639;28;20067;-60